Main page
METAR-TAF:

METAR-TAF

Airports :

Humberside Airport

Humberside, England

latitude: 53-35N, longitude: 000-21W, elevation: 31 m

Current weather observation

The report was made 37 minutes ago, at 23:20 UTC
Wind 11 kt from the Southwest
Temperature 10°C
Humidity 87%
Pressure 1027 hPa

METAR: EGNJ 192320Z AUTO 22011KT //// // OVC012/// 10/08 Q1027

Time: 23:57 (23:57 UTC)

Forecast

The report was made 4 hours and 2 minutes ago, at 19:55 UTC
Forecast valid from 19 at 21 UTC to 20 at 06 UTC
Wind 6 kt from the West/Southwest
Visibility 10 km or more
Scattered clouds at a height of 3000 ft
Probability 40% :
Temporary
from 20 at 00 UTC to 20 at 06 UTC
Broken clouds at a height of 1400 ft

TAF: EGNJ 191955Z 1921/2006 24006KT 9999 SCT030 PROB40 TEMPO 2000/2006 BKN014

Weather observations and forecasts of more than 4000 airports (METAR and TAF reports).

The available stations are represented by yellow and red dots on the map.

Hover mouse over dot to see the name of the station.

Then click to see weather observations and forecasts.

To change the map : click on the green buttons with a black cross to zoom in, on the green button with a dash to zoom out, or on the green arrows for adjacent maps.


METAR-TAF: